sensor_id;sensor_type;location;lat;lon;timestamp;P1;durP1;ratioP1;P2;durP2;ratioP2
16391;SDS011;8305;-33.882;151.134;2023-07-29T00:02:08;8.80;;;5.20;;
16391;SDS011;8305;-33.882;151.134;2023-07-29T00:04:39;7.25;;;4.13;;
16391;SDS011;8305;-33.882;151.134;2023-07-29T00:07:10;6.95;;;4.68;;
16391;SDS011;8305;-33.882;151.134;2023-07-29T00:09:41;6.72;;;3.90;;
16391;SDS011;8305;-33.882;151.134;2023-07-29T00:12:11;7.72;;;4.85;;
16391;SDS011;8305;-33.882;151.134;2023-07-29T00:14:43;10.93;;;4.35;;
16391;SDS011;8305;-33.882;151.134;2023-07-29T00:17:15;6.90;;;3.80;;
16391;SDS011;8305;-33.882;151.134;2023-07-29T00:19:46;7.32;;;3.78;;
16391;SDS011;8305;-33.882;151.134;2023-07-29T00:22:17;6.82;;;3.00;;
16391;SDS011;8305;-33.882;151.134;2023-07-29T00:24:51;5.85;;;3.05;;
16391;SDS011;8305;-33.882;151.134;2023-07-29T00:27:23;6.20;;;3.00;;
16391;SDS011;8305;-33.882;151.134;2023-07-29T00:29:54;7.22;;;2.50;;
16391;SDS011;8305;-33.882;151.134;2023-07-29T00:32:29;2.97;;;1.85;;
16391;SDS011;8305;-33.882;151.134;2023-07-29T00:34:59;5.45;;;1.73;;
16391;SDS011;8305;-33.882;151.134;2023-07-29T00:37:30;2.80;;;1.50;;
16391;SDS011;8305;-33.882;151.134;2023-07-29T00:40:01;1.92;;;1.08;;
16391;SDS011;8305;-33.882;151.134;2023-07-29T00:42:32;1.50;;;1.13;;
16391;SDS011;8305;-33.882;151.134;2023-07-29T00:45:03;2.83;;;1.10;;
16391;SDS011;8305;-33.882;151.134;2023-07-29T00:47:36;2.67;;;0.70;;
16391;SDS011;8305;-33.882;151.134;2023-07-29T00:50:08;3.15;;;1.10;;
16391;SDS011;8305;-33.882;151.134;2023-07-29T00:52:40;5.80;;;1.17;;
16391;SDS011;8305;-33.882;151.134;2023-07-29T00:55:11;1.10;;;0.80;;
16391;SDS011;8305;-33.882;151.134;2023-07-29T00:57:42;1.75;;;0.73;;
16391;SDS011;8305;-33.882;151.134;2023-07-29T01:00:14;2.00;;;0.80;;
16391;SDS011;8305;-33.882;151.134;2023-07-29T01:02:47;2.17;;;0.82;;
16391;SDS011;8305;-33.882;151.134;2023-07-29T01:05:18;1.10;;;0.80;;
16391;SDS011;8305;-33.882;151.134;2023-07-29T01:07:51;3.53;;;0.80;;
16391;SDS011;8305;-33.882;151.134;2023-07-29T01:10:30;1.75;;;0.85;;
16391;SDS011;8305;-33.882;151.134;2023-07-29T01:13:10;1.67;;;0.80;;
16391;SDS011;8305;-33.882;151.134;2023-07-29T01:15:47;1.38;;;0.73;;
16391;SDS011;8305;-33.882;151.134;2023-07-29T01:18:26;1.55;;;0.70;;
16391;SDS011;8305;-33.882;151.134;2023-07-29T01:20:58;1.73;;;0.80;;
16391;SDS011;8305;-33.882;151.134;2023-07-29T01:23:34;2.33;;;0.98;;
16391;SDS011;8305;-33.882;151.134;2023-07-29T01:26:05;0.77;;;0.65;;
16391;SDS011;8305;-33.882;151.134;2023-07-29T01:28:36;1.75;;;0.80;;
16391;SDS011;8305;-33.882;151.134;2023-07-29T01:31:10;1.02;;;0.60;;
16391;SDS011;8305;-33.882;151.134;2023-07-29T01:33:45;1.77;;;0.80;;
16391;SDS011;8305;-33.882;151.134;2023-07-29T01:36:22;1.25;;;0.77;;
16391;SDS011;8305;-33.882;151.134;2023-07-29T01:38:58;2.15;;;0.80;;
16391;SDS011;8305;-33.882;151.134;2023-07-29T01:41:31;2.20;;;1.05;;
16391;SDS011;8305;-33.882;151.134;2023-07-29T01:44:02;1.10;;;0.73;;
16391;SDS011;8305;-33.882;151.134;2023-07-29T01:46:35;2.92;;;0.82;;
16391;SDS011;8305;-33.882;151.134;2023-07-29T01:49:07;2.65;;;0.80;;
16391;SDS011;8305;-33.882;151.134;2023-07-29T01:51:38;6.78;;;0.80;;
16391;SDS011;8305;-33.882;151.134;2023-07-29T01:54:11;1.92;;;0.70;;
16391;SDS011;8305;-33.882;151.134;2023-07-29T01:56:42;0.90;;;0.80;;
16391;SDS011;8305;-33.882;151.134;2023-07-29T01:59:13;1.20;;;0.68;;
16391;SDS011;8305;-33.882;151.134;2023-07-29T02:01:44;2.20;;;0.63;;
16391;SDS011;8305;-33.882;151.134;2023-07-29T02:04:15;0.82;;;0.50;;
16391;SDS011;8305;-33.882;151.134;2023-07-29T02:06:45;1.48;;;0.52;;
16391;SDS011;8305;-33.882;151.134;2023-07-29T02:09:18;2.13;;;0.52;;
16391;SDS011;8305;-33.882;151.134;2023-07-29T02:11:50;1.80;;;0.63;;
16391;SDS011;8305;-33.882;151.134;2023-07-29T02:14:20;1.98;;;0.70;;
16391;SDS011;8305;-33.882;151.134;2023-07-29T02:16:51;1.92;;;0.75;;
16391;SDS011;8305;-33.882;151.134;2023-07-29T02:19:22;2.25;;;0.80;;
16391;SDS011;8305;-33.882;151.134;2023-07-29T02:21:53;1.77;;;0.77;;
16391;SDS011;8305;-33.882;151.134;2023-07-29T02:24:26;3.25;;;0.90;;
16391;SDS011;8305;-33.882;151.134;2023-07-29T02:26:56;0.77;;;0.70;;
16391;SDS011;8305;-33.882;151.134;2023-07-29T02:29:27;0.88;;;0.77;;
16391;SDS011;8305;-33.882;151.134;2023-07-29T02:31:59;1.50;;;0.70;;
16391;SDS011;8305;-33.882;151.134;2023-07-29T02:34:30;1.88;;;0.70;;
16391;SDS011;8305;-33.882;151.134;2023-07-29T02:37:01;2.38;;;0.80;;
16391;SDS011;8305;-33.882;151.134;2023-07-29T02:39:34;1.67;;;0.70;;
16391;SDS011;8305;-33.882;151.134;2023-07-29T02:42:05;1.58;;;0.80;;
16391;SDS011;8305;-33.882;151.134;2023-07-29T02:44:36;1.70;;;0.90;;
16391;SDS011;8305;-33.882;151.134;2023-07-29T02:47:06;1.90;;;0.85;;
16391;SDS011;8305;-33.882;151.134;2023-07-29T02:49:37;1.60;;;0.80;;
16391;SDS011;8305;-33.882;151.134;2023-07-29T02:52:08;1.02;;;0.85;;
16391;SDS011;8305;-33.882;151.134;2023-07-29T02:54:41;1.95;;;1.17;;
16391;SDS011;8305;-33.882;151.134;2023-07-29T02:57:13;1.58;;;1.13;;
16391;SDS011;8305;-33.882;151.134;2023-07-29T02:59:44;1.30;;;1.10;;
16391;SDS011;8305;-33.882;151.134;2023-07-29T03:02:14;1.52;;;1.35;;
16391;SDS011;8305;-33.882;151.134;2023-07-29T03:04:45;2.92;;;1.77;;
16391;SDS011;8305;-33.882;151.134;2023-07-29T03:07:18;3.20;;;2.35;;
16391;SDS011;8305;-33.882;151.134;2023-07-29T03:09:50;4.65;;;2.80;;
16391;SDS011;8305;-33.882;151.134;2023-07-29T03:12:21;2.70;;;2.42;;
16391;SDS011;8305;-33.882;151.134;2023-07-29T03:14:52;3.70;;;2.78;;
16391;SDS011;8305;-33.882;151.134;2023-07-29T03:17:23;4.38;;;3.22;;
16391;SDS011;8305;-33.882;151.134;2023-07-29T03:19:54;4.72;;;3.40;;
16391;SDS011;8305;-33.882;151.134;2023-07-29T03:22:25;3.25;;;2.60;;
16391;SDS011;8305;-33.882;151.134;2023-07-29T03:24:57;3.65;;;2.80;;
16391;SDS011;8305;-33.882;151.134;2023-07-29T03:27:29;3.67;;;2.50;;
16391;SDS011;8305;-33.882;151.134;2023-07-29T03:30:02;4.00;;;2.83;;
16391;SDS011;8305;-33.882;151.134;2023-07-29T03:32:33;8.63;;;6.78;;
16391;SDS011;8305;-33.882;151.134;2023-07-29T03:35:04;6.03;;;3.90;;
16391;SDS011;8305;-33.882;151.134;2023-07-29T03:37:35;4.53;;;3.35;;
16391;SDS011;8305;-33.882;151.134;2023-07-29T03:40:09;2.42;;;1.60;;
16391;SDS011;8305;-33.882;151.134;2023-07-29T03:42:40;1.80;;;1.58;;
16391;SDS011;8305;-33.882;151.134;2023-07-29T03:45:10;2.15;;;1.40;;
16391;SDS011;8305;-33.882;151.134;2023-07-29T03:47:41;3.17;;;1.70;;
16391;SDS011;8305;-33.882;151.134;2023-07-29T03:50:12;1.70;;;1.60;;
16391;SDS011;8305;-33.882;151.134;2023-07-29T03:52:43;2.20;;;1.80;;
16391;SDS011;8305;-33.882;151.134;2023-07-29T03:55:15;3.05;;;0.90;;
16391;SDS011;8305;-33.882;151.134;2023-07-29T03:57:46;2.63;;;0.90;;
16391;SDS011;8305;-33.882;151.134;2023-07-29T04:00:17;1.58;;;1.00;;
16391;SDS011;8305;-33.882;151.134;2023-07-29T04:02:48;2.20;;;1.13;;
16391;SDS011;8305;-33.882;151.134;2023-07-29T04:05:19;2.13;;;1.10;;
16391;SDS011;8305;-33.882;151.134;2023-07-29T04:07:50;4.30;;;1.00;;
16391;SDS011;8305;-33.882;151.134;2023-07-29T04:10:23;4.80;;;1.00;;
16391;SDS011;8305;-33.882;151.134;2023-07-29T04:12:54;3.33;;;1.10;;
16391;SDS011;8305;-33.882;151.134;2023-07-29T04:15:24;2.20;;;1.23;;
16391;SDS011;8305;-33.882;151.134;2023-07-29T04:17:55;2.35;;;1.10;;
16391;SDS011;8305;-33.882;151.134;2023-07-29T04:20:26;2.67;;;1.17;;
16391;SDS011;8305;-33.882;151.134;2023-07-29T04:22:57;2.42;;;1.17;;
16391;SDS011;8305;-33.882;151.134;2023-07-29T04:25:30;1.77;;;1.00;;
16391;SDS011;8305;-33.882;151.134;2023-07-29T04:28:01;1.85;;;1.17;;
16391;SDS011;8305;-33.882;151.134;2023-07-29T04:30:31;3.25;;;1.05;;
16391;SDS011;8305;-33.882;151.134;2023-07-29T04:33:02;3.17;;;1.17;;
16391;SDS011;8305;-33.882;151.134;2023-07-29T04:35:33;1.45;;;0.85;;
16391;SDS011;8305;-33.882;151.134;2023-07-29T04:38:04;3.17;;;1.08;;
16391;SDS011;8305;-33.882;151.134;2023-07-29T04:40:36;3.40;;;1.23;;
16391;SDS011;8305;-33.882;151.134;2023-07-29T04:43:07;2.17;;;1.10;;
16391;SDS011;8305;-33.882;151.134;2023-07-29T04:45:42;3.42;;;1.20;;
16391;SDS011;8305;-33.882;151.134;2023-07-29T04:48:13;2.55;;;1.20;;
16391;SDS011;8305;-33.882;151.134;2023-07-29T04:50:43;2.40;;;1.20;;
16391;SDS011;8305;-33.882;151.134;2023-07-29T04:53:14;4.60;;;1.58;;
16391;SDS011;8305;-33.882;151.134;2023-07-29T04:55:47;2.35;;;1.13;;
16391;SDS011;8305;-33.882;151.134;2023-07-29T04:58:18;2.97;;;1.30;;
16391;SDS011;8305;-33.882;151.134;2023-07-29T05:00:48;3.00;;;1.25;;
16391;SDS011;8305;-33.882;151.134;2023-07-29T05:03:19;2.25;;;1.27;;
16391;SDS011;8305;-33.882;151.134;2023-07-29T05:05:50;4.43;;;1.50;;
16391;SDS011;8305;-33.882;151.134;2023-07-29T05:08:22;4.35;;;1.55;;
16391;SDS011;8305;-33.882;151.134;2023-07-29T05:10:55;2.97;;;1.20;;
16391;SDS011;8305;-33.882;151.134;2023-07-29T05:13:25;2.38;;;1.10;;
16391;SDS011;8305;-33.882;151.134;2023-07-29T05:15:56;3.30;;;1.00;;
16391;SDS011;8305;-33.882;151.134;2023-07-29T05:18:27;3.92;;;1.30;;
16391;SDS011;8305;-33.882;151.134;2023-07-29T05:20:58;2.47;;;1.17;;
16391;SDS011;8305;-33.882;151.134;2023-07-29T05:23:29;2.95;;;1.23;;
16391;SDS011;8305;-33.882;151.134;2023-07-29T05:26:01;3.17;;;1.05;;
16391;SDS011;8305;-33.882;151.134;2023-07-29T05:28:32;4.63;;;1.10;;
16391;SDS011;8305;-33.882;151.134;2023-07-29T05:31:03;3.35;;;1.08;;
16391;SDS011;8305;-33.882;151.134;2023-07-29T05:33:34;3.08;;;1.40;;
16391;SDS011;8305;-33.882;151.134;2023-07-29T05:36:04;3.88;;;1.40;;
16391;SDS011;8305;-33.882;151.134;2023-07-29T05:38:36;4.47;;;1.42;;
16391;SDS011;8305;-33.882;151.134;2023-07-29T05:41:09;4.63;;;1.42;;
16391;SDS011;8305;-33.882;151.134;2023-07-29T05:43:39;2.70;;;1.27;;
16391;SDS011;8305;-33.882;151.134;2023-07-29T05:46:11;2.85;;;1.33;;
16391;SDS011;8305;-33.882;151.134;2023-07-29T05:48:42;2.78;;;1.20;;
16391;SDS011;8305;-33.882;151.134;2023-07-29T05:51:13;5.22;;;1.20;;
16391;SDS011;8305;-33.882;151.134;2023-07-29T05:53:43;8.80;;;1.50;;
16391;SDS011;8305;-33.882;151.134;2023-07-29T05:56:16;4.45;;;1.35;;
16391;SDS011;8305;-33.882;151.134;2023-07-29T05:58:47;2.22;;;1.05;;
16391;SDS011;8305;-33.882;151.134;2023-07-29T06:01:18;3.08;;;1.20;;
16391;SDS011;8305;-33.882;151.134;2023-07-29T06:03:49;2.83;;;1.20;;
16391;SDS011;8305;-33.882;151.134;2023-07-29T06:06:20;3.40;;;1.30;;
16391;SDS011;8305;-33.882;151.134;2023-07-29T06:08:51;3.38;;;1.40;;
16391;SDS011;8305;-33.882;151.134;2023-07-29T06:11:23;2.60;;;1.20;;
16391;SDS011;8305;-33.882;151.134;2023-07-29T06:13:54;5.68;;;1.50;;
16391;SDS011;8305;-33.882;151.134;2023-07-29T06:16:25;17.13;;;11.75;;
16391;SDS011;8305;-33.882;151.134;2023-07-29T06:18:56;8.60;;;1.40;;
16391;SDS011;8305;-33.882;151.134;2023-07-29T06:21:27;5.80;;;1.38;;
16391;SDS011;8305;-33.882;151.134;2023-07-29T06:23:58;4.60;;;1.40;;
16391;SDS011;8305;-33.882;151.134;2023-07-29T06:26:31;3.15;;;1.40;;
16391;SDS011;8305;-33.882;151.134;2023-07-29T06:29:02;6.70;;;1.95;;
16391;SDS011;8305;-33.882;151.134;2023-07-29T06:31:32;3.97;;;1.60;;
16391;SDS011;8305;-33.882;151.134;2023-07-29T06:34:03;6.15;;;1.30;;
16391;SDS011;8305;-33.882;151.134;2023-07-29T06:36:34;6.47;;;2.38;;
16391;SDS011;8305;-33.882;151.134;2023-07-29T06:39:05;5.43;;;1.40;;
16391;SDS011;8305;-33.882;151.134;2023-07-29T06:41:37;2.75;;;1.20;;
16391;SDS011;8305;-33.882;151.134;2023-07-29T06:44:08;4.28;;;1.40;;
16391;SDS011;8305;-33.882;151.134;2023-07-29T06:46:39;2.83;;;1.05;;
16391;SDS011;8305;-33.882;151.134;2023-07-29T06:49:10;2.40;;;1.00;;
16391;SDS011;8305;-33.882;151.134;2023-07-29T06:51:41;5.13;;;1.15;;
16391;SDS011;8305;-33.882;151.134;2023-07-29T06:54:12;1.58;;;1.08;;
16391;SDS011;8305;-33.882;151.134;2023-07-29T06:56:45;2.67;;;1.40;;
16391;SDS011;8305;-33.882;151.134;2023-07-29T06:59:15;2.92;;;1.50;;
16391;SDS011;8305;-33.882;151.134;2023-07-29T07:01:46;4.05;;;1.45;;
16391;SDS011;8305;-33.882;151.134;2023-07-29T07:04:17;3.33;;;1.30;;
16391;SDS011;8305;-33.882;151.134;2023-07-29T07:06:48;3.55;;;1.52;;
16391;SDS011;8305;-33.882;151.134;2023-07-29T07:09:19;3.58;;;1.73;;
16391;SDS011;8305;-33.882;151.134;2023-07-29T07:11:51;3.22;;;1.52;;
16391;SDS011;8305;-33.882;151.134;2023-07-29T07:14:22;3.45;;;1.38;;
16391;SDS011;8305;-33.882;151.134;2023-07-29T07:16:53;1.77;;;1.40;;
16391;SDS011;8305;-33.882;151.134;2023-07-29T07:19:24;3.42;;;1.30;;
16391;SDS011;8305;-33.882;151.134;2023-07-29T07:21:55;1.77;;;1.40;;
16391;SDS011;8305;-33.882;151.134;2023-07-29T07:24:25;3.83;;;1.40;;
16391;SDS011;8305;-33.882;151.134;2023-07-29T07:26:58;2.58;;;1.38;;
16391;SDS011;8305;-33.882;151.134;2023-07-29T07:29:29;4.55;;;1.90;;
16391;SDS011;8305;-33.882;151.134;2023-07-29T07:32:00;7.78;;;3.78;;
16391;SDS011;8305;-33.882;151.134;2023-07-29T07:34:30;8.25;;;3.65;;
16391;SDS011;8305;-33.882;151.134;2023-07-29T07:37:01;5.53;;;2.60;;
16391;SDS011;8305;-33.882;151.134;2023-07-29T07:39:32;3.38;;;2.35;;
16391;SDS011;8305;-33.882;151.134;2023-07-29T07:42:05;2.45;;;1.90;;
16391;SDS011;8305;-33.882;151.134;2023-07-29T07:44:36;3.33;;;2.10;;
16391;SDS011;8305;-33.882;151.134;2023-07-29T07:47:07;3.55;;;2.17;;
16391;SDS011;8305;-33.882;151.134;2023-07-29T07:49:37;4.53;;;2.30;;
16391;SDS011;8305;-33.882;151.134;2023-07-29T07:52:08;3.10;;;2.13;;
16391;SDS011;8305;-33.882;151.134;2023-07-29T07:54:39;3.83;;;2.33;;
16391;SDS011;8305;-33.882;151.134;2023-07-29T07:57:11;4.03;;;2.17;;
16391;SDS011;8305;-33.882;151.134;2023-07-29T07:59:42;4.07;;;2.50;;
16391;SDS011;8305;-33.882;151.134;2023-07-29T08:02:13;5.32;;;2.75;;
16391;SDS011;8305;-33.882;151.134;2023-07-29T08:04:44;4.88;;;2.88;;
16391;SDS011;8305;-33.882;151.134;2023-07-29T08:07:14;6.60;;;3.88;;
16391;SDS011;8305;-33.882;151.134;2023-07-29T08:09:45;5.72;;;3.35;;
16391;SDS011;8305;-33.882;151.134;2023-07-29T08:12:18;6.03;;;3.47;;
16391;SDS011;8305;-33.882;151.134;2023-07-29T08:14:49;8.90;;;4.60;;
16391;SDS011;8305;-33.882;151.134;2023-07-29T08:17:19;8.20;;;4.30;;
16391;SDS011;8305;-33.882;151.134;2023-07-29T08:19:50;7.97;;;3.92;;
16391;SDS011;8305;-33.882;151.134;2023-07-29T08:22:21;6.47;;;3.45;;
16391;SDS011;8305;-33.882;151.134;2023-07-29T08:24:52;5.60;;;3.05;;
16391;SDS011;8305;-33.882;151.134;2023-07-29T08:27:25;9.25;;;3.60;;
16391;SDS011;8305;-33.882;151.134;2023-07-29T08:29:55;6.72;;;3.15;;
16391;SDS011;8305;-33.882;151.134;2023-07-29T08:32:26;5.78;;;3.53;;
16391;SDS011;8305;-33.882;151.134;2023-07-29T08:34:57;5.50;;;3.38;;
16391;SDS011;8305;-33.882;151.134;2023-07-29T08:37:28;6.45;;;3.25;;
16391;SDS011;8305;-33.882;151.134;2023-07-29T08:39:59;6.80;;;3.80;;
16391;SDS011;8305;-33.882;151.134;2023-07-29T08:42:32;5.70;;;3.67;;
16391;SDS011;8305;-33.882;151.134;2023-07-29T08:45:06;7.22;;;3.45;;
16391;SDS011;8305;-33.882;151.134;2023-07-29T08:47:38;7.22;;;2.85;;
16391;SDS011;8305;-33.882;151.134;2023-07-29T08:50:09;5.72;;;2.97;;
16391;SDS011;8305;-33.882;151.134;2023-07-29T08:52:40;5.13;;;3.00;;
16391;SDS011;8305;-33.882;151.134;2023-07-29T08:55:12;7.20;;;3.40;;
16391;SDS011;8305;-33.882;151.134;2023-07-29T08:57:46;4.50;;;3.33;;
16391;SDS011;8305;-33.882;151.134;2023-07-29T09:00:17;4.45;;;2.95;;
16391;SDS011;8305;-33.882;151.134;2023-07-29T09:02:48;4.85;;;3.00;;
16391;SDS011;8305;-33.882;151.134;2023-07-29T09:05:19;6.55;;;3.38;;
16391;SDS011;8305;-33.882;151.134;2023-07-29T09:07:51;6.15;;;3.70;;
16391;SDS011;8305;-33.882;151.134;2023-07-29T09:10:22;6.10;;;3.78;;
16391;SDS011;8305;-33.882;151.134;2023-07-29T09:12:58;4.75;;;3.40;;
16391;SDS011;8305;-33.882;151.134;2023-07-29T09:15:29;5.50;;;3.70;;
16391;SDS011;8305;-33.882;151.134;2023-07-29T09:18:08;6.53;;;3.60;;
16391;SDS011;8305;-33.882;151.134;2023-07-29T09:20:39;6.78;;;3.92;;
16391;SDS011;8305;-33.882;151.134;2023-07-29T09:23:10;7.88;;;4.40;;
16391;SDS011;8305;-33.882;151.134;2023-07-29T09:25:41;7.47;;;4.32;;
16391;SDS011;8305;-33.882;151.134;2023-07-29T09:28:16;6.90;;;4.50;;
16391;SDS011;8305;-33.882;151.134;2023-07-29T09:30:48;8.27;;;4.28;;
16391;SDS011;8305;-33.882;151.134;2023-07-29T09:33:19;9.48;;;5.28;;
16391;SDS011;8305;-33.882;151.134;2023-07-29T09:35:50;8.35;;;5.80;;
16391;SDS011;8305;-33.882;151.134;2023-07-29T09:38:26;9.98;;;6.88;;
16391;SDS011;8305;-33.882;151.134;2023-07-29T09:40:57;10.25;;;7.30;;
16391;SDS011;8305;-33.882;151.134;2023-07-29T09:43:31;11.18;;;6.53;;
16391;SDS011;8305;-33.882;151.134;2023-07-29T09:46:02;10.02;;;6.97;;
16391;SDS011;8305;-33.882;151.134;2023-07-29T09:48:35;11.77;;;8.10;;
16391;SDS011;8305;-33.882;151.134;2023-07-29T09:51:10;10.45;;;7.85;;
16391;SDS011;8305;-33.882;151.134;2023-07-29T09:53:42;11.73;;;7.43;;
16391;SDS011;8305;-33.882;151.134;2023-07-29T09:56:14;8.35;;;6.70;;
16391;SDS011;8305;-33.882;151.134;2023-07-29T09:58:47;9.50;;;6.75;;
16391;SDS011;8305;-33.882;151.134;2023-07-29T10:01:18;10.30;;;6.32;;
16391;SDS011;8305;-33.882;151.134;2023-07-29T10:03:49;9.55;;;7.15;;
16391;SDS011;8305;-33.882;151.134;2023-07-29T10:06:22;12.25;;;6.68;;
16391;SDS011;8305;-33.882;151.134;2023-07-29T10:08:53;10.25;;;6.78;;
16391;SDS011;8305;-33.882;151.134;2023-07-29T10:11:25;9.60;;;6.30;;
16391;SDS011;8305;-33.882;151.134;2023-07-29T10:13:58;8.45;;;5.60;;
16391;SDS011;8305;-33.882;151.134;2023-07-29T10:16:30;7.97;;;5.20;;
16391;SDS011;8305;-33.882;151.134;2023-07-29T10:19:03;8.82;;;5.38;;
16391;SDS011;8305;-33.882;151.134;2023-07-29T10:21:37;7.55;;;5.28;;
16391;SDS011;8305;-33.882;151.134;2023-07-29T10:24:24;8.38;;;5.40;;
16391;SDS011;8305;-33.882;151.134;2023-07-29T10:27:01;8.02;;;5.00;;
16391;SDS011;8305;-33.882;151.134;2023-07-29T10:29:36;10.50;;;5.53;;
16391;SDS011;8305;-33.882;151.134;2023-07-29T10:32:10;8.77;;;4.82;;
16391;SDS011;8305;-33.882;151.134;2023-07-29T10:34:41;8.77;;;5.20;;
16391;SDS011;8305;-33.882;151.134;2023-07-29T10:37:13;8.57;;;4.95;;
16391;SDS011;8305;-33.882;151.134;2023-07-29T10:39:51;8.05;;;5.38;;
16391;SDS011;8305;-33.882;151.134;2023-07-29T10:42:23;11.65;;;6.05;;
16391;SDS011;8305;-33.882;151.134;2023-07-29T10:44:55;8.30;;;5.20;;
16391;SDS011;8305;-33.882;151.134;2023-07-29T10:47:27;8.55;;;5.00;;
16391;SDS011;8305;-33.882;151.134;2023-07-29T10:49:59;6.28;;;4.43;;
16391;SDS011;8305;-33.882;151.134;2023-07-29T10:52:30;9.57;;;5.10;;
16391;SDS011;8305;-33.882;151.134;2023-07-29T10:55:24;8.93;;;4.63;;
16391;SDS011;8305;-33.882;151.134;2023-07-29T10:58:06;5.82;;;4.32;;
16391;SDS011;8305;-33.882;151.134;2023-07-29T11:00:43;8.65;;;4.57;;
16391;SDS011;8305;-33.882;151.134;2023-07-29T11:03:14;6.97;;;4.65;;
16391;SDS011;8305;-33.882;151.134;2023-07-29T11:05:46;7.15;;;4.65;;
16391;SDS011;8305;-33.882;151.134;2023-07-29T11:08:21;8.90;;;4.50;;
16391;SDS011;8305;-33.882;151.134;2023-07-29T11:11:06;7.53;;;4.70;;
16391;SDS011;8305;-33.882;151.134;2023-07-29T11:13:40;7.30;;;4.40;;
16391;SDS011;8305;-33.882;151.134;2023-07-29T11:16:14;7.72;;;4.60;;
16391;SDS011;8305;-33.882;151.134;2023-07-29T11:18:47;7.57;;;4.57;;
16391;SDS011;8305;-33.882;151.134;2023-07-29T11:21:18;9.07;;;5.30;;
16391;SDS011;8305;-33.882;151.134;2023-07-29T11:23:53;7.93;;;4.82;;
16391;SDS011;8305;-33.882;151.134;2023-07-29T11:26:24;6.65;;;4.07;;
16391;SDS011;8305;-33.882;151.134;2023-07-29T11:28:55;9.13;;;4.88;;
16391;SDS011;8305;-33.882;151.134;2023-07-29T11:31:40;9.40;;;4.60;;
16391;SDS011;8305;-33.882;151.134;2023-07-29T11:34:11;8.00;;;4.60;;
16391;SDS011;8305;-33.882;151.134;2023-07-29T11:36:46;7.63;;;4.22;;
16391;SDS011;8305;-33.882;151.134;2023-07-29T11:39:17;8.05;;;4.68;;
16391;SDS011;8305;-33.882;151.134;2023-07-29T11:41:47;6.70;;;4.60;;
16391;SDS011;8305;-33.882;151.134;2023-07-29T11:44:18;8.52;;;4.85;;
16391;SDS011;8305;-33.882;151.134;2023-07-29T11:46:51;8.55;;;4.72;;
16391;SDS011;8305;-33.882;151.134;2023-07-29T11:49:22;7.75;;;4.72;;
16391;SDS011;8305;-33.882;151.134;2023-07-29T11:51:53;7.55;;;4.80;;
16391;SDS011;8305;-33.882;151.134;2023-07-29T11:54:27;7.40;;;4.93;;
16391;SDS011;8305;-33.882;151.134;2023-07-29T11:56:57;7.78;;;4.68;;
16391;SDS011;8305;-33.882;151.134;2023-07-29T11:59:28;6.50;;;4.43;;
16391;SDS011;8305;-33.882;151.134;2023-07-29T12:02:02;7.30;;;4.85;;
16391;SDS011;8305;-33.882;151.134;2023-07-29T12:04:37;7.45;;;4.25;;
16391;SDS011;8305;-33.882;151.134;2023-07-29T12:07:09;7.00;;;4.50;;
16391;SDS011;8305;-33.882;151.134;2023-07-29T12:09:41;7.43;;;4.40;;
16391;SDS011;8305;-33.882;151.134;2023-07-29T12:12:13;7.28;;;4.57;;
16391;SDS011;8305;-33.882;151.134;2023-07-29T12:14:44;6.63;;;4.60;;
16391;SDS011;8305;-33.882;151.134;2023-07-29T12:17:17;8.50;;;4.78;;
16391;SDS011;8305;-33.882;151.134;2023-07-29T12:19:49;6.88;;;4.72;;
16391;SDS011;8305;-33.882;151.134;2023-07-29T12:22:23;7.88;;;4.72;;
16391;SDS011;8305;-33.882;151.134;2023-07-29T12:24:54;8.77;;;5.45;;
16391;SDS011;8305;-33.882;151.134;2023-07-29T12:27:25;9.98;;;5.53;;
16391;SDS011;8305;-33.882;151.134;2023-07-29T12:29:56;9.07;;;4.97;;
16391;SDS011;8305;-33.882;151.134;2023-07-29T12:32:31;7.85;;;4.95;;
16391;SDS011;8305;-33.882;151.134;2023-07-29T12:35:02;8.02;;;5.30;;
16391;SDS011;8305;-33.882;151.134;2023-07-29T12:37:38;8.95;;;5.30;;
16391;SDS011;8305;-33.882;151.134;2023-07-29T12:40:20;8.30;;;5.20;;
16391;SDS011;8305;-33.882;151.134;2023-07-29T12:42:52;8.43;;;5.90;;
16391;SDS011;8305;-33.882;151.134;2023-07-29T12:45:23;8.70;;;5.55;;
16391;SDS011;8305;-33.882;151.134;2023-07-29T12:47:57;9.43;;;5.72;;
16391;SDS011;8305;-33.882;151.134;2023-07-29T12:50:27;11.55;;;7.03;;
16391;SDS011;8305;-33.882;151.134;2023-07-29T12:52:58;11.10;;;6.35;;
16391;SDS011;8305;-33.882;151.134;2023-07-29T12:55:29;10.65;;;6.70;;
16391;SDS011;8305;-33.882;151.134;2023-07-29T12:57:59;12.25;;;6.30;;
16391;SDS011;8305;-33.882;151.134;2023-07-29T13:00:30;11.23;;;6.07;;
16391;SDS011;8305;-33.882;151.134;2023-07-29T13:03:03;10.68;;;6.35;;
16391;SDS011;8305;-33.882;151.134;2023-07-29T13:05:34;10.90;;;6.60;;
16391;SDS011;8305;-33.882;151.134;2023-07-29T13:08:04;9.25;;;6.63;;
16391;SDS011;8305;-33.882;151.134;2023-07-29T13:10:36;11.13;;;6.05;;
16391;SDS011;8305;-33.882;151.134;2023-07-29T13:13:07;12.02;;;6.68;;
16391;SDS011;8305;-33.882;151.134;2023-07-29T13:15:38;10.82;;;6.30;;
16391;SDS011;8305;-33.882;151.134;2023-07-29T13:18:11;11.73;;;6.85;;
16391;SDS011;8305;-33.882;151.134;2023-07-29T13:20:41;11.73;;;7.40;;
16391;SDS011;8305;-33.882;151.134;2023-07-29T13:23:12;10.90;;;6.70;;
16391;SDS011;8305;-33.882;151.134;2023-07-29T13:25:43;12.32;;;7.28;;
16391;SDS011;8305;-33.882;151.134;2023-07-29T13:28:14;11.60;;;6.95;;
16391;SDS011;8305;-33.882;151.134;2023-07-29T13:30:45;12.60;;;6.82;;
16391;SDS011;8305;-33.882;151.134;2023-07-29T13:33:17;9.68;;;6.50;;
16391;SDS011;8305;-33.882;151.134;2023-07-29T13:35:48;9.73;;;6.45;;
16391;SDS011;8305;-33.882;151.134;2023-07-29T13:38:19;10.98;;;6.47;;
16391;SDS011;8305;-33.882;151.134;2023-07-29T13:40:50;13.07;;;6.57;;
16391;SDS011;8305;-33.882;151.134;2023-07-29T13:43:20;8.80;;;6.50;;
16391;SDS011;8305;-33.882;151.134;2023-07-29T13:45:51;12.32;;;6.50;;
16391;SDS011;8305;-33.882;151.134;2023-07-29T13:48:24;10.07;;;6.32;;
16391;SDS011;8305;-33.882;151.134;2023-07-29T13:50:55;10.25;;;6.47;;
16391;SDS011;8305;-33.882;151.134;2023-07-29T13:53:25;11.80;;;6.30;;
16391;SDS011;8305;-33.882;151.134;2023-07-29T13:55:56;10.15;;;6.32;;
16391;SDS011;8305;-33.882;151.134;2023-07-29T13:58:27;10.88;;;7.38;;
16391;SDS011;8305;-33.882;151.134;2023-07-29T14:00:58;9.55;;;6.30;;
16391;SDS011;8305;-33.882;151.134;2023-07-29T14:03:31;11.48;;;7.00;;
16391;SDS011;8305;-33.882;151.134;2023-07-29T14:06:01;10.27;;;6.82;;
16391;SDS011;8305;-33.882;151.134;2023-07-29T14:08:32;9.90;;;6.65;;
16391;SDS011;8305;-33.882;151.134;2023-07-29T14:11:03;13.05;;;7.40;;
16391;SDS011;8305;-33.882;151.134;2023-07-29T14:13:34;13.63;;;7.82;;
16391;SDS011;8305;-33.882;151.134;2023-07-29T14:16:05;12.77;;;7.32;;
16391;SDS011;8305;-33.882;151.134;2023-07-29T14:18:37;14.20;;;7.80;;
16391;SDS011;8305;-33.882;151.134;2023-07-29T14:21:08;12.57;;;7.63;;
16391;SDS011;8305;-33.882;151.134;2023-07-29T14:23:39;13.65;;;8.48;;
16391;SDS011;8305;-33.882;151.134;2023-07-29T14:26:09;16.48;;;9.40;;
16391;SDS011;8305;-33.882;151.134;2023-07-29T14:28:40;14.32;;;9.13;;
16391;SDS011;8305;-33.882;151.134;2023-07-29T14:31:11;15.43;;;8.95;;
16391;SDS011;8305;-33.882;151.134;2023-07-29T14:33:45;13.45;;;8.80;;
16391;SDS011;8305;-33.882;151.134;2023-07-29T14:36:15;13.27;;;8.48;;
16391;SDS011;8305;-33.882;151.134;2023-07-29T14:38:46;11.32;;;8.00;;
16391;SDS011;8305;-33.882;151.134;2023-07-29T14:41:17;12.55;;;8.43;;
16391;SDS011;8305;-33.882;151.134;2023-07-29T14:43:48;15.07;;;9.60;;
16391;SDS011;8305;-33.882;151.134;2023-07-29T14:46:19;18.73;;;11.50;;